sensor_id;sensor_type;location;lat;lon;timestamp;pressure;altitude;pressure_sealevel;temperature;humidity
83631;BME280;73593;52.134;5.426;2024-02-23T00:00:16;98706.56;;;3.44;91.08
83631;BME280;73593;52.134;5.426;2024-02-23T00:02:44;98718.53;;;3.46;90.60
83631;BME280;73593;52.134;5.426;2024-02-23T00:05:11;98730.41;;;3.50;91.07
83631;BME280;73593;52.134;5.426;2024-02-23T00:07:38;98727.38;;;3.55;90.88
83631;BME280;73593;52.134;5.426;2024-02-23T00:10:07;98729.59;;;3.60;91.21
83631;BME280;73593;52.134;5.426;2024-02-23T00:12:34;98729.22;;;3.64;90.97
83631;BME280;73593;52.134;5.426;2024-02-23T00:15:03;98733.09;;;3.70;91.32
83631;BME280;73593;52.134;5.426;2024-02-23T00:17:31;98741.25;;;3.76;91.23
83631;BME280;73593;52.134;5.426;2024-02-23T00:19:57;98740.84;;;3.81;90.96
83631;BME280;73593;52.134;5.426;2024-02-23T00:22:24;98739.59;;;3.85;91.12
83631;BME280;73593;52.134;5.426;2024-02-23T00:24:52;98734.94;;;3.89;91.02
83631;BME280;73593;52.134;5.426;2024-02-23T00:27:18;98748.72;;;3.91;91.13
83631;BME280;73593;52.134;5.426;2024-02-23T00:29:45;98747.88;;;3.90;91.40
83631;BME280;73593;52.134;5.426;2024-02-23T00:32:15;98751.19;;;3.92;91.22
83631;BME280;73593;52.134;5.426;2024-02-23T00:34:43;98748.31;;;3.95;91.55
83631;BME280;73593;52.134;5.426;2024-02-23T00:37:10;98759.47;;;3.97;92.00
83631;BME280;73593;52.134;5.426;2024-02-23T00:39:39;98762.66;;;4.01;91.97
83631;BME280;73593;52.134;5.426;2024-02-23T00:42:06;98762.66;;;4.01;92.11
83631;BME280;73593;52.134;5.426;2024-02-23T00:44:38;98764.31;;;4.02;92.16
83631;BME280;73593;52.134;5.426;2024-02-23T00:47:07;98766.81;;;4.03;92.42
83631;BME280;73593;52.134;5.426;2024-02-23T00:49:33;98768.34;;;4.06;92.12
83631;BME280;73593;52.134;5.426;2024-02-23T00:52:00;98773.97;;;4.11;92.44
83631;BME280;73593;52.134;5.426;2024-02-23T00:54:27;98782.16;;;4.18;92.50
83631;BME280;73593;52.134;5.426;2024-02-23T00:56:56;98781.75;;;4.22;92.26
83631;BME280;73593;52.134;5.426;2024-02-23T00:59:25;98784.09;;;4.25;92.03
83631;BME280;73593;52.134;5.426;2024-02-23T01:01:52;98785.63;;;4.28;92.05
83631;BME280;73593;52.134;5.426;2024-02-23T01:04:21;98787.97;;;4.31;91.26
83631;BME280;73593;52.134;5.426;2024-02-23T01:06:50;98791.28;;;4.33;90.93
83631;BME280;73593;52.134;5.426;2024-02-23T01:09:17;98788.66;;;4.33;90.69
83631;BME280;73593;52.134;5.426;2024-02-23T01:11:49;98807.97;;;4.32;90.30
83631;BME280;73593;52.134;5.426;2024-02-23T01:14:16;98802.16;;;4.28;90.35
83631;BME280;73593;52.134;5.426;2024-02-23T01:16:44;98816.59;;;4.13;89.58
83631;BME280;73593;52.134;5.426;2024-02-23T01:19:11;98823.84;;;4.00;89.84
83631;BME280;73593;52.134;5.426;2024-02-23T01:21:40;98833.06;;;3.94;89.87
83631;BME280;73593;52.134;5.426;2024-02-23T01:24:06;98829.84;;;3.91;90.01
83631;BME280;73593;52.134;5.426;2024-02-23T01:26:38;98830.13;;;3.88;89.82
83631;BME280;73593;52.134;5.426;2024-02-23T01:29:10;98836.72;;;3.82;89.09
83631;BME280;73593;52.134;5.426;2024-02-23T01:31:37;98826.50;;;3.79;88.54
83631;BME280;73593;52.134;5.426;2024-02-23T01:34:04;98846.91;;;3.85;88.21
83631;BME280;73593;52.134;5.426;2024-02-23T01:36:32;98857.97;;;3.89;88.42
83631;BME280;73593;52.134;5.426;2024-02-23T01:38:59;98861.53;;;3.88;88.61
83631;BME280;73593;52.134;5.426;2024-02-23T01:41:28;98855.59;;;3.86;89.00
83631;BME280;73593;52.134;5.426;2024-02-23T01:43:55;98850.63;;;3.83;89.42
83631;BME280;73593;52.134;5.426;2024-02-23T01:46:26;98842.91;;;3.81;89.74
83631;BME280;73593;52.134;5.426;2024-02-23T01:48:53;98848.16;;;3.81;90.17
83631;BME280;73593;52.134;5.426;2024-02-23T01:51:20;98855.19;;;3.81;90.80
83631;BME280;73593;52.134;5.426;2024-02-23T01:53:47;98872.53;;;3.82;90.59
83631;BME280;73593;52.134;5.426;2024-02-23T01:56:15;98876.53;;;3.86;91.40
83631;BME280;73593;52.134;5.426;2024-02-23T01:58:46;98877.13;;;3.89;91.61
83631;BME280;73593;52.134;5.426;2024-02-23T02:01:13;98876.00;;;3.92;91.41
83631;BME280;73593;52.134;5.426;2024-02-23T02:03:40;98883.63;;;3.95;92.11
83631;BME280;73593;52.134;5.426;2024-02-23T02:06:09;98883.34;;;3.98;92.12
83631;BME280;73593;52.134;5.426;2024-02-23T02:08:39;98883.34;;;3.98;92.25
83631;BME280;73593;52.134;5.426;2024-02-23T02:11:06;98892.03;;;3.98;92.50
83631;BME280;73593;52.134;5.426;2024-02-23T02:13:33;98893.72;;;3.99;92.18
83631;BME280;73593;52.134;5.426;2024-02-23T02:16:03;98886.69;;;4.00;92.03
83631;BME280;73593;52.134;5.426;2024-02-23T02:18:30;98891.09;;;3.99;92.04
83631;BME280;73593;52.134;5.426;2024-02-23T02:20:57;98893.81;;;3.98;92.44
83631;BME280;73593;52.134;5.426;2024-02-23T02:23:27;98893.94;;;3.96;91.96
83631;BME280;73593;52.134;5.426;2024-02-23T02:25:55;98888.72;;;3.96;91.69
83631;BME280;73593;52.134;5.426;2024-02-23T02:28:25;98884.59;;;3.94;91.80
83631;BME280;73593;52.134;5.426;2024-02-23T02:30:52;98881.25;;;3.92;91.59
83631;BME280;73593;52.134;5.426;2024-02-23T02:33:22;98890.06;;;3.91;91.92
83631;BME280;73593;52.134;5.426;2024-02-23T02:35:51;98900.81;;;3.88;91.52
83631;BME280;73593;52.134;5.426;2024-02-23T02:38:20;98893.06;;;3.86;91.72
83631;BME280;73593;52.134;5.426;2024-02-23T02:40:52;98897.47;;;3.86;91.81
83631;BME280;73593;52.134;5.426;2024-02-23T02:43:18;98896.09;;;3.82;91.41
83631;BME280;73593;52.134;5.426;2024-02-23T02:45:45;98893.84;;;3.77;91.44
83631;BME280;73593;52.134;5.426;2024-02-23T02:48:15;98896.00;;;3.72;91.39
83631;BME280;73593;52.134;5.426;2024-02-23T02:50:42;98896.00;;;3.72;90.93
83631;BME280;73593;52.134;5.426;2024-02-23T02:53:09;98904.69;;;3.72;91.27
83631;BME280;73593;52.134;5.426;2024-02-23T02:55:41;98908.28;;;3.71;91.24
83631;BME280;73593;52.134;5.426;2024-02-23T02:58:10;98914.34;;;3.72;90.93
83631;BME280;73593;52.134;5.426;2024-02-23T03:00:40;98906.63;;;3.70;91.58
83631;BME280;73593;52.134;5.426;2024-02-23T03:03:06;98911.16;;;3.68;91.15
83631;BME280;73593;52.134;5.426;2024-02-23T03:05:33;98900.78;;;3.67;91.11
83631;BME280;73593;52.134;5.426;2024-02-23T03:08:02;98909.38;;;3.69;90.81
83631;BME280;73593;52.134;5.426;2024-02-23T03:10:32;98912.00;;;3.69;90.86
83631;BME280;73593;52.134;5.426;2024-02-23T03:12:58;98916.50;;;3.67;90.71
83631;BME280;73593;52.134;5.426;2024-02-23T03:15:27;98925.16;;;3.67;91.06
83631;BME280;73593;52.134;5.426;2024-02-23T03:17:55;98931.22;;;3.68;90.83
83631;BME280;73593;52.134;5.426;2024-02-23T03:20:24;98931.22;;;3.68;91.00
83631;BME280;73593;52.134;5.426;2024-02-23T03:22:51;98932.09;;;3.68;91.08
83631;BME280;73593;52.134;5.426;2024-02-23T03:25:18;98927.94;;;3.66;90.79
83631;BME280;73593;52.134;5.426;2024-02-23T03:27:45;98922.97;;;3.63;90.57
83631;BME280;73593;52.134;5.426;2024-02-23T03:30:18;98932.59;;;3.62;90.95
83631;BME280;73593;52.134;5.426;2024-02-23T03:32:44;98937.81;;;3.62;90.87
83631;BME280;73593;52.134;5.426;2024-02-23T03:35:13;98932.97;;;3.58;90.34
83631;BME280;73593;52.134;5.426;2024-02-23T03:37:42;98944.25;;;3.58;90.32
83631;BME280;73593;52.134;5.426;2024-02-23T03:40:13;98946.41;;;3.53;90.84
83631;BME280;73593;52.134;5.426;2024-02-23T03:42:44;98951.31;;;3.46;90.67
83631;BME280;73593;52.134;5.426;2024-02-23T03:45:11;98949.91;;;3.42;90.74
83631;BME280;73593;52.134;5.426;2024-02-23T03:47:38;98951.00;;;3.40;90.37
83631;BME280;73593;52.134;5.426;2024-02-23T03:50:05;98972.06;;;3.38;90.64
83631;BME280;73593;52.134;5.426;2024-02-23T03:52:34;98969.31;;;3.40;90.82
83631;BME280;73593;52.134;5.426;2024-02-23T03:55:01;98966.69;;;3.40;90.62
83631;BME280;73593;52.134;5.426;2024-02-23T03:57:30;98966.69;;;3.40;90.84
83631;BME280;73593;52.134;5.426;2024-02-23T04:00:00;98961.69;;;3.37;90.77
83631;BME280;73593;52.134;5.426;2024-02-23T04:02:29;98968.59;;;3.38;90.70
83631;BME280;73593;52.134;5.426;2024-02-23T04:04:56;98959.06;;;3.37;90.79
83631;BME280;73593;52.134;5.426;2024-02-23T04:07:22;98965.53;;;3.33;90.83
83631;BME280;73593;52.134;5.426;2024-02-23T04:09:50;98964.94;;;3.29;90.82
83631;BME280;73593;52.134;5.426;2024-02-23T04:12:19;98967.53;;;3.29;90.85
83631;BME280;73593;52.134;5.426;2024-02-23T04:14:46;98970.53;;;3.24;90.91
83631;BME280;73593;52.134;5.426;2024-02-23T04:17:13;98970.91;;;3.20;91.08
83631;BME280;73593;52.134;5.426;2024-02-23T04:19:43;98978.28;;;3.15;90.93
83631;BME280;73593;52.134;5.426;2024-02-23T04:22:12;98973.06;;;3.15;91.37
83631;BME280;73593;52.134;5.426;2024-02-23T04:24:40;98974.72;;;3.16;91.17
83631;BME280;73593;52.134;5.426;2024-02-23T04:27:07;98971.28;;;3.15;91.39
83631;BME280;73593;52.134;5.426;2024-02-23T04:29:34;98985.31;;;3.14;91.00
83631;BME280;73593;52.134;5.426;2024-02-23T04:32:01;98985.19;;;3.16;91.41
83631;BME280;73593;52.134;5.426;2024-02-23T04:34:28;98984.34;;;3.15;91.30
83631;BME280;73593;52.134;5.426;2024-02-23T04:36:55;98978.53;;;3.12;91.16
83631;BME280;73593;52.134;5.426;2024-02-23T04:39:22;98983.75;;;3.12;91.23
83631;BME280;73593;52.134;5.426;2024-02-23T04:41:49;98987.56;;;3.08;91.33
83631;BME280;73593;52.134;5.426;2024-02-23T04:44:18;98994.00;;;3.04;91.68
83631;BME280;73593;52.134;5.426;2024-02-23T04:46:47;98996.00;;;3.00;91.30
83631;BME280;73593;52.134;5.426;2024-02-23T04:49:15;99009.19;;;2.99;91.28
83631;BME280;73593;52.134;5.426;2024-02-23T04:51:43;99006.59;;;2.99;91.55
83631;BME280;73593;52.134;5.426;2024-02-23T04:54:10;99003.63;;;3.03;91.52
83631;BME280;73593;52.134;5.426;2024-02-23T04:56:37;99002.19;;;3.10;91.58
83631;BME280;73593;52.134;5.426;2024-02-23T04:59:06;99003.72;;;3.13;91.73
83631;BME280;73593;52.134;5.426;2024-02-23T05:01:36;99001.69;;;3.16;91.81
83631;BME280;73593;52.134;5.426;2024-02-23T05:04:03;99010.00;;;3.21;91.48
83631;BME280;73593;52.134;5.426;2024-02-23T05:06:33;99014.16;;;3.24;91.93
83631;BME280;73593;52.134;5.426;2024-02-23T05:09:00;99007.88;;;3.27;91.69
83631;BME280;73593;52.134;5.426;2024-02-23T05:11:26;99012.97;;;3.28;91.54
83631;BME280;73593;52.134;5.426;2024-02-23T05:13:54;99010.94;;;3.32;91.87
83631;BME280;73593;52.134;5.426;2024-02-23T05:16:21;99007.25;;;3.34;91.85
83631;BME280;73593;52.134;5.426;2024-02-23T05:18:47;99000.22;;;3.35;91.83
83631;BME280;73593;52.134;5.426;2024-02-23T05:21:17;99000.91;;;3.37;91.96
83631;BME280;73593;52.134;5.426;2024-02-23T05:23:43;98999.88;;;3.39;91.82
83631;BME280;73593;52.134;5.426;2024-02-23T05:26:15;99001.50;;;3.40;91.42
83631;BME280;73593;52.134;5.426;2024-02-23T05:28:43;99008.41;;;3.41;91.99
83631;BME280;73593;52.134;5.426;2024-02-23T05:31:10;99007.34;;;3.44;91.68
83631;BME280;73593;52.134;5.426;2024-02-23T05:33:40;99003.63;;;3.46;91.84
83631;BME280;73593;52.134;5.426;2024-02-23T05:36:07;99015.63;;;3.49;91.69
83631;BME280;73593;52.134;5.426;2024-02-23T05:38:34;99012.78;;;3.52;91.54
83631;BME280;73593;52.134;5.426;2024-02-23T05:41:01;99000.53;;;3.53;91.17
83631;BME280;73593;52.134;5.426;2024-02-23T05:43:31;99009.06;;;3.55;91.33
83631;BME280;73593;52.134;5.426;2024-02-23T05:46:01;99001.94;;;3.57;91.15
83631;BME280;73593;52.134;5.426;2024-02-23T05:48:31;99005.41;;;3.57;91.38
83631;BME280;73593;52.134;5.426;2024-02-23T05:50:57;99013.13;;;3.59;91.28
83631;BME280;73593;52.134;5.426;2024-02-23T05:53:24;99014.06;;;3.58;90.99
83631;BME280;73593;52.134;5.426;2024-02-23T05:55:53;99007.88;;;3.59;91.09
83631;BME280;73593;52.134;5.426;2024-02-23T05:58:20;98997.41;;;3.59;91.36
83631;BME280;73593;52.134;5.426;2024-02-23T06:00:49;99008.56;;;3.61;91.19
83631;BME280;73593;52.134;5.426;2024-02-23T06:03:18;99002.50;;;3.60;90.72
83631;BME280;73593;52.134;5.426;2024-02-23T06:05:45;99008.56;;;3.61;91.12
83631;BME280;73593;52.134;5.426;2024-02-23T06:08:11;99002.28;;;3.63;91.15
83631;BME280;73593;52.134;5.426;2024-02-23T06:10:38;99002.00;;;3.66;91.07
83631;BME280;73593;52.134;5.426;2024-02-23T06:13:05;99005.22;;;3.70;90.58
83631;BME280;73593;52.134;5.426;2024-02-23T06:15:34;99004.25;;;3.71;90.45
83631;BME280;73593;52.134;5.426;2024-02-23T06:18:01;99007.56;;;3.73;90.38
83631;BME280;73593;52.134;5.426;2024-02-23T06:20:27;99005.69;;;3.75;90.14
83631;BME280;73593;52.134;5.426;2024-02-23T06:22:56;99014.22;;;3.77;90.35
83631;BME280;73593;52.134;5.426;2024-02-23T06:25:23;99009.81;;;3.77;90.14
83631;BME280;73593;52.134;5.426;2024-02-23T06:27:50;99012.31;;;3.79;90.21
83631;BME280;73593;52.134;5.426;2024-02-23T06:30:22;99014.81;;;3.81;89.78
83631;BME280;73593;52.134;5.426;2024-02-23T06:32:51;99012.91;;;3.83;89.77
83631;BME280;73593;52.134;5.426;2024-02-23T06:35:18;99021.59;;;3.83;89.73
83631;BME280;73593;52.134;5.426;2024-02-23T06:37:45;99017.88;;;3.86;89.63
83631;BME280;73593;52.134;5.426;2024-02-23T06:40:12;99030.72;;;3.89;89.41
83631;BME280;73593;52.134;5.426;2024-02-23T06:42:46;99030.47;;;3.92;89.25
83631;BME280;73593;52.134;5.426;2024-02-23T06:45:15;99023.31;;;3.94;89.47
83631;BME280;73593;52.134;5.426;2024-02-23T06:47:44;99032.69;;;3.96;89.04
83631;BME280;73593;52.134;5.426;2024-02-23T06:50:11;99016.75;;;3.99;88.81
83631;BME280;73593;52.134;5.426;2024-02-23T06:52:38;99022.69;;;4.01;88.61
83631;BME280;73593;52.134;5.426;2024-02-23T06:55:05;99020.06;;;4.01;88.77
83631;BME280;73593;52.134;5.426;2024-02-23T06:57:32;99017.31;;;4.03;88.81
83631;BME280;73593;52.134;5.426;2024-02-23T06:59:58;99022.41;;;4.04;88.28
83631;BME280;73593;52.134;5.426;2024-02-23T07:02:28;99016.94;;;4.08;88.33
83631;BME280;73593;52.134;5.426;2024-02-23T07:05:01;99023.00;;;4.08;87.99
83631;BME280;73593;52.134;5.426;2024-02-23T07:07:31;99029.91;;;4.09;87.98
83631;BME280;73593;52.134;5.426;2024-02-23T07:09:59;99027.03;;;4.12;88.31
83631;BME280;73593;52.134;5.426;2024-02-23T07:12:26;99027.03;;;4.12;88.04
83631;BME280;73593;52.134;5.426;2024-02-23T07:14:55;99023.47;;;4.13;87.91
83631;BME280;73593;52.134;5.426;2024-02-23T07:17:22;99028.56;;;4.15;87.95
83631;BME280;73593;52.134;5.426;2024-02-23T07:19:51;99030.94;;;4.18;87.93
83631;BME280;73593;52.134;5.426;2024-02-23T07:22:20;99036.03;;;4.19;87.52
83631;BME280;73593;52.134;5.426;2024-02-23T07:24:46;99025.19;;;4.24;87.43
83631;BME280;73593;52.134;5.426;2024-02-23T07:27:13;99023.28;;;4.26;87.81
83631;BME280;73593;52.134;5.426;2024-02-23T07:29:40;99022.06;;;4.30;87.52
83631;BME280;73593;52.134;5.426;2024-02-23T07:32:07;99038.19;;;4.35;87.54
83631;BME280;73593;52.134;5.426;2024-02-23T07:34:37;99020.44;;;4.39;87.57
83631;BME280;73593;52.134;5.426;2024-02-23T07:37:06;99027.22;;;4.41;87.68
83631;BME280;73593;52.134;5.426;2024-02-23T07:39:37;99018.41;;;4.42;87.29
83631;BME280;73593;52.134;5.426;2024-02-23T07:42:07;99019.94;;;4.45;86.83
83631;BME280;73593;52.134;5.426;2024-02-23T07:44:40;99013.34;;;4.50;86.68
83631;BME280;73593;52.134;5.426;2024-02-23T07:47:06;99000.78;;;4.54;86.74
83631;BME280;73593;52.134;5.426;2024-02-23T07:49:33;98992.41;;;4.60;86.73
83631;BME280;73593;52.134;5.426;2024-02-23T07:52:02;98994.50;;;4.66;86.92
83631;BME280;73593;52.134;5.426;2024-02-23T07:54:29;98984.22;;;4.74;86.86
83631;BME280;73593;52.134;5.426;2024-02-23T07:56:58;98999.66;;;4.77;86.54
83631;BME280;73593;52.134;5.426;2024-02-23T07:59:27;98989.91;;;4.79;85.70
83631;BME280;73593;52.134;5.426;2024-02-23T08:01:55;98986.31;;;4.80;85.93
83631;BME280;73593;52.134;5.426;2024-02-23T08:04:22;98992.38;;;4.81;86.14
83631;BME280;73593;52.134;5.426;2024-02-23T08:06:54;98987.13;;;4.81;85.15
83631;BME280;73593;52.134;5.426;2024-02-23T08:09:20;98994.84;;;4.82;84.87
83631;BME280;73593;52.134;5.426;2024-02-23T08:11:52;98995.69;;;4.83;84.19
83631;BME280;73593;52.134;5.426;2024-02-23T08:14:21;98982.44;;;4.84;84.63
83631;BME280;73593;52.134;5.426;2024-02-23T08:16:48;98977.63;;;4.90;84.41
83631;BME280;73593;52.134;5.426;2024-02-23T08:19:17;98976.25;;;4.95;84.76
83631;BME280;73593;52.134;5.426;2024-02-23T08:21:44;98985.53;;;4.99;85.15
83631;BME280;73593;52.134;5.426;2024-02-23T08:24:12;98974.91;;;5.01;84.18
83631;BME280;73593;52.134;5.426;2024-02-23T08:26:41;98980.84;;;5.03;84.31
83631;BME280;73593;52.134;5.426;2024-02-23T08:29:09;98979.19;;;5.02;84.23
83631;BME280;73593;52.134;5.426;2024-02-23T08:31:35;98975.72;;;5.01;84.23
83631;BME280;73593;52.134;5.426;2024-02-23T08:34:06;98975.88;;;5.00;84.36
83631;BME280;73593;52.134;5.426;2024-02-23T08:36:35;98977.81;;;4.98;84.17
83631;BME280;73593;52.134;5.426;2024-02-23T08:39:05;98970.88;;;4.97;83.60
83631;BME280;73593;52.134;5.426;2024-02-23T08:41:31;98965.78;;;4.95;83.70
83631;BME280;73593;52.134;5.426;2024-02-23T08:43:58;98964.94;;;4.95;83.68
83631;BME280;73593;52.134;5.426;2024-02-23T08:46:25;98967.56;;;4.95;83.58
83631;BME280;73593;52.134;5.426;2024-02-23T08:48:52;98965.78;;;4.95;83.99
83631;BME280;73593;52.134;5.426;2024-02-23T08:51:18;98944.13;;;4.93;83.23
83631;BME280;73593;52.134;5.426;2024-02-23T08:53:45;98955.44;;;4.94;83.37
83631;BME280;73593;52.134;5.426;2024-02-23T08:56:12;98951.97;;;4.93;83.70
83631;BME280;73593;52.134;5.426;2024-02-23T08:58:39;98956.41;;;4.93;83.93
83631;BME280;73593;52.134;5.426;2024-02-23T09:01:08;98956.53;;;4.91;84.20
83631;BME280;73593;52.134;5.426;2024-02-23T09:03:37;98964.28;;;4.93;84.58
83631;BME280;73593;52.134;5.426;2024-02-23T09:06:06;98950.44;;;4.91;84.71
83631;BME280;73593;52.134;5.426;2024-02-23T09:08:33;98967.84;;;4.92;85.17
83631;BME280;73593;52.134;5.426;2024-02-23T09:11:00;98978.22;;;4.93;85.46
83631;BME280;73593;52.134;5.426;2024-02-23T09:13:27;98980.69;;;4.95;85.00
83631;BME280;73593;52.134;5.426;2024-02-23T09:15:56;98966.59;;;4.96;84.63
83631;BME280;73593;52.134;5.426;2024-02-23T09:18:25;98987.47;;;4.97;85.32
83631;BME280;73593;52.134;5.426;2024-02-23T09:20:53;98985.94;;;4.95;85.28
83631;BME280;73593;52.134;5.426;2024-02-23T09:23:19;98986.63;;;4.97;84.96
83631;BME280;73593;52.134;5.426;2024-02-23T09:25:48;98978.63;;;4.98;85.18
83631;BME280;73593;52.134;5.426;2024-02-23T09:28:18;98982.91;;;4.99;85.32
83631;BME280;73593;52.134;5.426;2024-02-23T09:30:45;98981.69;;;5.03;85.49
83631;BME280;73593;52.134;5.426;2024-02-23T09:33:11;98979.63;;;5.07;84.83
83631;BME280;73593;52.134;5.426;2024-02-23T09:35:38;98980.28;;;5.09;84.69
83631;BME280;73593;52.134;5.426;2024-02-23T09:38:08;98992.34;;;5.11;84.83
83631;BME280;73593;52.134;5.426;2024-02-23T09:40:34;98988.06;;;5.10;84.88
83631;BME280;73593;52.134;5.426;2024-02-23T09:43:01;98986.41;;;5.09;84.59
83631;BME280;73593;52.134;5.426;2024-02-23T09:45:30;98989.13;;;5.08;84.71
83631;BME280;73593;52.134;5.426;2024-02-23T09:47:57;98993.56;;;5.07;84.99
83631;BME280;73593;52.134;5.426;2024-02-23T09:50:25;98998.66;;;5.09;85.10
83631;BME280;73593;52.134;5.426;2024-02-23T09:52:52;99005.59;;;5.10;85.22
83631;BME280;73593;52.134;5.426;2024-02-23T09:55:21;99015.25;;;5.09;85.03
83631;BME280;73593;52.134;5.426;2024-02-23T09:57:52;99022.16;;;5.10;85.03
83631;BME280;73593;52.134;5.426;2024-02-23T10:00:26;99018.56;;;5.11;85.49
83631;BME280;73593;52.134;5.426;2024-02-23T10:02:53;99019.81;;;5.17;85.33
83631;BME280;73593;52.134;5.426;2024-02-23T10:05:29;99007.53;;;5.27;85.31
83631;BME280;73593;52.134;5.426;2024-02-23T10:08:04;99014.22;;;5.41;85.01
83631;BME280;73593;52.134;5.426;2024-02-23T10:10:35;99015.59;;;5.55;84.74
83631;BME280;73593;52.134;5.426;2024-02-23T10:13:05;99013.69;;;5.66;84.59
83631;BME280;73593;52.134;5.426;2024-02-23T10:15:34;99014.78;;;5.74;84.59
83631;BME280;73593;52.134;5.426;2024-02-23T10:18:08;99020.72;;;5.76;84.73
83631;BME280;73593;52.134;5.426;2024-02-23T10:20:34;99027.50;;;5.78;84.13
83631;BME280;73593;52.134;5.426;2024-02-23T10:23:08;99021.97;;;5.81;84.30
83631;BME280;73593;52.134;5.426;2024-02-23T10:25:37;99024.44;;;5.83;83.79
83631;BME280;73593;52.134;5.426;2024-02-23T10:28:07;99023.63;;;5.82;83.94
83631;BME280;73593;52.134;5.426;2024-02-23T10:30:36;99025.84;;;5.87;84.21
83631;BME280;73593;52.134;5.426;2024-02-23T10:33:05;99043.41;;;5.86;84.18
83631;BME280;73593;52.134;5.426;2024-02-23T10:35:32;99030.66;;;5.82;84.05
83631;BME280;73593;52.134;5.426;2024-02-23T10:38:02;99036.22;;;5.79;83.95
83631;BME280;73593;52.134;5.426;2024-02-23T10:40:30;99039.66;;;5.79;84.69
83631;BME280;73593;52.134;5.426;2024-02-23T10:43:02;99049.59;;;5.76;84.75
83631;BME280;73593;52.134;5.426;2024-02-23T10:45:31;99056.94;;;5.72;84.50
83631;BME280;73593;52.134;5.426;2024-02-23T10:47:59;99057.34;;;5.68;84.32
83631;BME280;73593;52.134;5.426;2024-02-23T10:50:29;99059.00;;;5.69;84.51
83631;BME280;73593;52.134;5.426;2024-02-23T10:52:56;99066.72;;;5.70;84.79
83631;BME280;73593;52.134;5.426;2024-02-23T10:55:26;99071.16;;;5.70;84.40
83631;BME280;73593;52.134;5.426;2024-02-23T10:57:56;99066.72;;;5.70;84.17
83631;BME280;73593;52.134;5.426;2024-02-23T11:00:27;99068.13;;;5.74;84.32
83631;BME280;73593;52.134;5.426;2024-02-23T11:02:54;99076.28;;;5.81;84.36
83631;BME280;73593;52.134;5.426;2024-02-23T11:05:22;99063.06;;;5.92;84.43
83631;BME280;73593;52.134;5.426;2024-02-23T11:07:55;99069.28;;;6.10;84.03
83631;BME280;73593;52.134;5.426;2024-02-23T11:10:22;99076.19;;;6.21;83.78
83631;BME280;73593;52.134;5.426;2024-02-23T11:12:58;99067.06;;;6.25;82.97
83631;BME280;73593;52.134;5.426;2024-02-23T11:16:22;99074.94;;;6.35;82.03
83631;BME280;73593;52.134;5.426;2024-02-23T11:19:04;99068.28;;;6.40;82.22
83631;BME280;73593;52.134;5.426;2024-02-23T11:21:38;99061.91;;;6.53;82.59
83631;BME280;73593;52.134;5.426;2024-02-23T11:24:07;99062.84;;;6.61;81.66
83631;BME280;73593;52.134;5.426;2024-02-23T11:26:36;99076.66;;;6.73;81.32
83631;BME280;73593;52.134;5.426;2024-02-23T11:29:19;99066.13;;;6.83;80.81
83631;BME280;73593;52.134;5.426;2024-02-23T11:31:46;99077.72;;;6.90;80.49
83631;BME280;73593;52.134;5.426;2024-02-23T11:34:13;99068.94;;;6.99;81.38
83631;BME280;73593;52.134;5.426;2024-02-23T11:36:40;99070.63;;;7.00;80.22
83631;BME280;73593;52.134;5.426;2024-02-23T11:39:09;99065.31;;;7.10;80.23
83631;BME280;73593;52.134;5.426;2024-02-23T11:41:39;99056.25;;;7.22;80.36
83631;BME280;73593;52.134;5.426;2024-02-23T11:44:11;99061.63;;;7.30;79.58
83631;BME280;73593;52.134;5.426;2024-02-23T11:46:46;99070.50;;;7.29;79.22
83631;BME280;73593;52.134;5.426;2024-02-23T11:49:16;99082.41;;;7.33;78.60
83631;BME280;73593;52.134;5.426;2024-02-23T11:51:42;99079.44;;;7.36;79.31
83631;BME280;73593;52.134;5.426;2024-02-23T11:54:13;99094.16;;;7.39;78.39
83631;BME280;73593;52.134;5.426;2024-02-23T11:56:40;99085.41;;;7.38;78.48
83631;BME280;73593;52.134;5.426;2024-02-23T11:59:07;99076.00;;;7.36;78.04
83631;BME280;73593;52.134;5.426;2024-02-23T12:01:34;99092.50;;;7.38;78.46
83631;BME280;73593;52.134;5.426;2024-02-23T12:04:06;99092.38;;;7.30;77.50
83631;BME280;73593;52.134;5.426;2024-02-23T12:06:37;99087.94;;;7.30;78.36
83631;BME280;73593;52.134;5.426;2024-02-23T12:09:06;99094.19;;;7.29;77.70
83631;BME280;73593;52.134;5.426;2024-02-23T12:11:33;99088.41;;;7.25;77.81
83631;BME280;73593;52.134;5.426;2024-02-23T12:14:01;99091.16;;;7.24;78.56
83631;BME280;73593;52.134;5.426;2024-02-23T12:16:35;99092.59;;;7.18;77.59
83631;BME280;73593;52.134;5.426;2024-02-23T12:19:03;99089.09;;;7.18;77.58
83631;BME280;73593;52.134;5.426;2024-02-23T12:21:30;99087.69;;;7.23;77.86
83631;BME280;73593;52.134;5.426;2024-02-23T12:23:57;99090.03;;;7.26;77.63
83631;BME280;73593;52.134;5.426;2024-02-23T12:26:23;99087.94;;;7.30;77.42
83631;BME280;73593;52.134;5.426;2024-02-23T12:29:00;99089.16;;;7.36;77.76
83631;BME280;73593;52.134;5.426;2024-02-23T12:31:27;99085.00;;;7.43;77.55
83631;BME280;73593;52.134;5.426;2024-02-23T12:33:53;99091.72;;;7.55;77.34
83631;BME280;73593;52.134;5.426;2024-02-23T12:36:20;99093.94;;;7.50;76.75
83631;BME280;73593;52.134;5.426;2024-02-23T12:38:47;99094.63;;;7.52;76.92
83631;BME280;73593;52.134;5.426;2024-02-23T12:41:16;99106.81;;;7.53;76.22
83631;BME280;73593;52.134;5.426;2024-02-23T12:43:45;99096.28;;;7.53;75.88
83631;BME280;73593;52.134;5.426;2024-02-23T12:46:16;99111.56;;;7.49;76.11
83631;BME280;73593;52.134;5.426;2024-02-23T12:48:43;99100.44;;;7.56;75.80
83631;BME280;73593;52.134;5.426;2024-02-23T12:51:10;99108.19;;;7.57;75.68
83631;BME280;73593;52.134;5.426;2024-02-23T12:53:41;99098.41;;;7.49;75.08
83631;BME280;73593;52.134;5.426;2024-02-23T12:56:13;99109.19;;;7.46;75.46
83631;BME280;73593;52.134;5.426;2024-02-23T12:58:44;99112.00;;;7.45;76.07
83631;BME280;73593;52.134;5.426;2024-02-23T13:01:13;99108.69;;;7.43;75.97
83631;BME280;73593;52.134;5.426;2024-02-23T13:03:42;99126.66;;;7.47;75.65
83631;BME280;73593;52.134;5.426;2024-02-23T13:06:11;99112.56;;;7.66;75.73
83631;BME280;73593;52.134;5.426;2024-02-23T13:08:39;99113.50;;;7.75;75.60
83631;BME280;73593;52.134;5.426;2024-02-23T13:11:07;99137.72;;;7.78;75.10
83631;BME280;73593;52.134;5.426;2024-02-23T13:13:41;99124.19;;;7.73;74.79
83631;BME280;73593;52.134;5.426;2024-02-23T13:16:10;99128.59;;;7.73;74.83